Time;durP1;ratioP1;P1;durP2;ratioP2;P2;SDS_P1;SDS_P2;PMS_P1;PMS_P2;Temp;Humidity;BMP_temperature;BMP_pressure;BME280_temperature;BME280_humidity;BME280_pressure;Samples;Min_cycle;Max_cycle;Signal;HPM_P1;HPM_P2
2022/09/15 09:41:43;;;;;;;3.25;1.05;;;19.00;99.90;;;;;;5013861;28;20199;-87
2022/09/15 09:44:12;;;;;;;2.78;1.10;;;19.20;99.90;;;;;;5007035;28;20195;-87
2022/09/15 09:46:39;;;;;;;2.17;1.00;;;19.20;99.90;;;;;;4995807;28;20190;-86
2022/09/15 09:49:25;;;;;;;1.33;1.20;;;19.20;99.90;;;;;;4995859;28;20194;-87
2022/09/15 09:51:52;;;;;;;0.90;0.90;;;19.30;99.90;;;;;;5014176;28;20229;-87
2022/09/15 09:54:21;;;;;;;2.60;1.10;;;19.40;99.90;;;;;;5002526;28;20191;-86
2022/09/15 09:56:52;;;;;;;1.50;1.02;;;19.60;99.90;;;;;;4997428;28;20174;-87
2022/09/15 09:59:41;;;;;;;1.10;0.90;;;19.80;99.90;;;;;;5014487;28;20186;-87
2022/09/15 10:02:10;;;;;;;2.00;0.90;;;20.00;99.90;;;;;;4998222;28;20240;-87
2022/09/15 10:04:39;;;;;;;1.67;0.95;;;20.10;99.90;;;;;;4998100;28;20260;-86
2022/09/15 10:07:07;;;;;;;1.38;0.90;;;20.20;99.90;;;;;;5026401;28;20209;-87
2022/09/15 10:09:51;;;;;;;2.75;1.30;;;20.20;99.90;;;;;;5016897;28;20228;-87
2022/09/15 10:12:39;;;;;;;1.55;1.25;;;20.10;99.90;;;;;;5018554;28;20319;-87
2022/09/15 10:15:19;;;;;;;2.53;0.93;;;20.00;99.90;;;;;;5039763;28;20214;-86
2022/09/15 10:17:46;;;;;;;4.30;1.30;;;19.90;99.90;;;;;;4991050;28;20182;-87
2022/09/15 10:20:38;;;;;;;2.08;1.20;;;19.70;99.90;;;;;;5016277;28;20189;-87
2022/09/15 10:23:29;;;;;;;1.27;1.05;;;19.70;99.90;;;;;;4992685;28;20170;-87
2022/09/15 10:26:17;;;;;;;1.58;1.27;;;19.60;99.90;;;;;;5013711;28;20199;-87
2022/09/15 10:29:02;;;;;;;1.60;1.23;;;19.50;99.90;;;;;;4979408;28;20175;-86
2022/09/15 10:31:31;;;;;;;1.38;1.27;;;19.60;99.90;;;;;;4981597;28;20190;-86
2022/09/15 10:33:56;;;;;;;2.67;1.30;;;19.60;99.90;;;;;;4979809;28;20194;-87
2022/09/15 10:36:28;;;;;;;1.50;1.40;;;19.70;99.90;;;;;;4999501;28;20170;-87
2022/09/15 10:39:14;;;;;;;2.28;1.50;;;19.70;99.90;;;;;;4999000;28;20269;-86
2022/09/15 10:41:56;;;;;;;2.65;1.45;;;19.70;99.90;;;;;;5014859;28;20170;-87
2022/09/15 10:44:47;;;;;;;2.97;1.70;;;19.70;99.90;;;;;;5000511;28;20287;-87
2022/09/15 10:47:39;;;;;;;2.92;1.48;;;19.70;99.90;;;;;;4999444;28;20175;-87
2022/09/15 10:50:35;;;;;;;2.53;1.45;;;19.70;99.90;;;;;;4989720;28;20317;-86
2022/09/15 10:53:22;;;;;;;2.65;1.50;;;19.70;99.90;;;;;;4958194;28;20202;-86
2022/09/15 10:56:15;;;;;;;2.95;1.38;;;19.70;99.90;;;;;;5017432;28;20205;-86
2022/09/15 10:59:06;;;;;;;1.75;1.65;;;19.60;99.90;;;;;;5002532;28;20171;-86
2022/09/15 11:01:42;;;;;;;1.90;1.70;;;19.50;99.90;;;;;;5015704;28;20229;-86
2022/09/15 11:04:29;;;;;;;2.33;1.77;;;19.50;99.90;;;;;;5000323;28;20211;-86
2022/09/15 11:07:20;;;;;;;2.50;1.75;;;19.50;99.90;;;;;;4982893;28;20167;-86
2022/09/15 11:10:01;;;;;;;3.53;1.45;;;19.40;99.90;;;;;;4987649;28;20225;-86
2022/09/15 11:12:52;;;;;;;3.72;1.60;;;19.40;99.90;;;;;;5011552;28;20167;-86
2022/09/15 11:15:50;;;;;;;5.45;1.80;;;19.30;99.90;;;;;;4982981;28;20195;-86
2022/09/15 11:18:36;;;;;;;2.28;1.67;;;19.20;99.90;;;;;;4995927;28;20195;-86
2022/09/15 11:21:32;;;;;;;2.08;1.85;;;19.20;99.90;;;;;;5026285;28;20171;-87
2022/09/15 11:24:19;;;;;;;2.00;1.60;;;19.20;99.90;;;;;;5002286;28;20198;-86
2022/09/15 11:26:51;;;;;;;2.78;1.20;;;19.10;99.90;;;;;;5002185;28;20166;-85
2022/09/15 11:29:26;;;;;;;1.95;1.55;;;19.00;99.90;;;;;;4992278;28;20219;-86
2022/09/15 11:32:09;;;;;;;1.33;1.23;;;19.00;99.90;;;;;;4985825;28;20181;-87
2022/09/15 11:34:47;;;;;;;2.17;0.73;;;19.00;99.90;;;;;;5001476;28;20190;-87
2022/09/15 11:37:20;;;;;;;0.50;0.40;;;18.90;99.90;;;;;;5000583;28;20174;-86
2022/09/15 11:40:15;;;;;;;1.45;0.50;;;18.70;99.90;;;;;;4990913;28;20199;-86
2022/09/15 11:42:45;;;;;;;0.50;0.50;;;18.40;99.90;;;;;;4989629;28;20206;-86
2022/09/15 11:45:21;;;;;;;0.98;0.43;;;18.20;99.90;;;;;;5016814;28;20210;-90
2022/09/15 11:48:11;;;;;;;0.73;0.50;;;18.00;99.90;;;;;;5017772;28;20197;-86
2022/09/15 11:50:50;;;;;;;1.15;0.73;;;17.80;99.90;;;;;;4987346;28;20210;-86
2022/09/15 11:53:59;;;;;;;1.52;0.50;;;17.60;99.90;;;;;;5003691;28;20174;-86
2022/09/15 11:56:43;;;;;;;1.80;0.60;;;17.50;99.90;;;;;;4960289;28;20178;-86
2022/09/15 11:59:16;;;;;;;0.85;0.50;;;17.50;99.90;;;;;;5012532;28;20189;-86
2022/09/15 12:02:03;;;;;;;0.90;0.43;;;17.40;99.90;;;;;;5004408;28;20222;-86
2022/09/15 12:04:38;;;;;;;1.48;0.60;;;17.20;99.90;;;;;;4994729;28;20206;-88
2022/09/15 12:07:24;;;;;;;1.17;0.50;;;17.10;99.90;;;;;;4998217;28;20215;-87
2022/09/15 12:09:50;;;;;;;1.10;0.32;;;17.00;99.90;;;;;;4999183;28;20210;-86
2022/09/15 12:12:19;;;;;;;0.40;0.40;;;16.80;99.90;;;;;;5004476;28;20230;-87
2022/09/15 12:14:48;;;;;;;0.80;0.40;;;16.60;99.90;;;;;;4997653;28;20339;-87
2022/09/15 12:17:39;;;;;;;0.40;0.40;;;16.40;99.90;;;;;;4985263;28;20254;-86
2022/09/15 12:20:10;;;;;;;0.77;0.50;;;16.30;99.90;;;;;;4999318;28;20179;-86
2022/09/15 12:22:50;;;;;;;0.67;0.67;;;16.30;99.90;;;;;;5020075;28;20289;-86
2022/09/15 12:25:46;;;;;;;0.70;0.70;;;16.20;99.90;;;;;;5002401;28;20210;-87
2022/09/15 12:28:21;;;;;;;0.87;0.70;;;16.10;99.90;;;;;;4958417;28;20199;-87
2022/09/15 12:31:14;;;;;;;1.83;0.80;;;16.10;99.90;;;;;;4992970;28;20210;-85
2022/09/15 12:34:19;;;;;;;0.97;0.90;;;16.00;99.90;;;;;;4987942;28;20195;-86
2022/09/15 12:36:47;;;;;;;1.23;1.00;;;16.00;99.90;;;;;;4976761;28;20206;-86
2022/09/15 12:39:30;;;;;;;1.40;1.20;;;16.00;99.90;;;;;;4992368;28;20195;-86
2022/09/15 12:41:59;;;;;;;1.53;1.30;;;16.00;99.90;;;;;;4979086;28;20183;-87
2022/09/15 12:44:36;;;;;;;1.67;1.50;;;16.00;99.90;;;;;;4978651;28;20203;-86
2022/09/15 12:47:06;;;;;;;1.60;1.50;;;16.20;99.90;;;;;;4996517;28;20187;-86
2022/09/15 12:49:40;;;;;;;1.77;1.60;;;16.30;99.90;;;;;;5004558;28;20279;-87
2022/09/15 12:52:08;;;;;;;2.37;1.53;;;16.40;99.90;;;;;;4994939;28;20179;-86
2022/09/15 12:54:37;;;;;;;1.90;1.50;;;16.50;99.90;;;;;;4979589;28;20199;-86
2022/09/15 12:57:06;;;;;;;1.90;1.80;;;16.50;99.90;;;;;;4978415;28;20179;-86
2022/09/15 12:59:33;;;;;;;2.47;1.70;;;16.40;99.90;;;;;;4987579;28;20236;-86
2022/09/15 13:01:59;;;;;;;2.60;1.77;;;16.40;99.90;;;;;;4998025;28;20278;-86
2022/09/15 13:04:39;;;;;;;1.80;1.70;;;16.40;99.90;;;;;;4978603;28;20298;-86
2022/09/15 13:07:15;;;;;;;1.93;1.60;;;16.50;99.90;;;;;;4978016;28;20206;-86
2022/09/15 13:09:55;;;;;;;1.77;1.47;;;16.50;99.90;;;;;;4978515;28;20206;-86
2022/09/15 13:12:25;;;;;;;2.60;1.60;;;16.70;99.90;;;;;;4996581;28;20175;-87
2022/09/15 13:14:55;;;;;;;2.67;1.70;;;16.70;99.90;;;;;;4994538;28;20230;-87
2022/09/15 13:17:25;;;;;;;4.33;2.00;;;16.70;99.90;;;;;;4997626;28;20228;-86
2022/09/15 13:19:58;;;;;;;3.80;1.87;;;16.80;99.90;;;;;;5014037;28;20213;-86
2022/09/15 13:22:33;;;;;;;3.00;1.60;;;17.20;99.90;;;;;;4997271;28;20187;-87
2022/09/15 13:25:09;;;;;;;2.03;1.30;;;17.40;99.90;;;;;;5013739;28;20190;-86
2022/09/15 13:27:52;;;;;;;2.40;1.50;;;17.30;99.90;;;;;;5001160;28;20182;-86
2022/09/15 13:30:34;;;;;;;1.90;1.40;;;17.30;99.90;;;;;;4997429;28;20206;-86
2022/09/15 13:33:24;;;;;;;2.03;1.37;;;17.20;99.90;;;;;;5030558;28;20205;-86
2022/09/15 13:36:18;;;;;;;3.37;1.80;;;17.20;99.90;;;;;;4997243;28;20199;-86
2022/09/15 13:39:06;;;;;;;2.83;1.40;;;17.30;99.90;;;;;;5030953;28;20183;-86
2022/09/15 13:41:57;;;;;;;2.10;1.50;;;17.30;99.90;;;;;;4996722;28;20297;-86
2022/09/15 13:44:43;;;;;;;3.55;1.58;;;17.40;99.90;;;;;;4997368;28;20217;-86
2022/09/15 13:47:28;;;;;;;1.88;1.58;;;17.60;99.90;;;;;;4996994;28;20234;-87
2022/09/15 13:50:28;;;;;;;2.25;1.25;;;17.70;99.90;;;;;;4997063;28;20206;-87
2022/09/15 13:52:53;;;;;;;1.85;1.30;;;18.00;99.90;;;;;;4996800;28;20270;-86
2022/09/15 13:55:26;;;;;;;1.52;1.40;;;18.20;99.90;;;;;;4997005;28;20293;-86
2022/09/15 13:57:57;;;;;;;1.88;1.08;;;18.40;99.90;;;;;;4993106;28;20179;-86
2022/09/15 14:00:47;;;;;;;1.83;1.10;;;18.30;99.90;;;;;;5010049;28;20200;-86
2022/09/15 14:03:27;;;;;;;1.60;1.08;;;18.00;99.90;;;;;;4983317;28;20195;-87
2022/09/15 14:05:54;;;;;;;1.42;0.90;;;18.00;99.90;;;;;;5033251;28;20329;-86
2022/09/15 14:08:24;;;;;;;0.93;0.85;;;17.90;99.90;;;;;;4994873;28;20185;-86
2022/09/15 14:10:55;;;;;;;0.88;0.82;;;17.90;99.90;;;;;;4977461;28;20310;-86
2022/09/15 14:13:23;;;;;;;1.45;0.90;;;17.90;99.90;;;;;;4995339;28;20199;-86
2022/09/15 14:16:01;;;;;;;3.33;1.35;;;17.90;99.90;;;;;;4996689;28;20202;-87
2022/09/15 14:18:28;;;;;;;2.53;1.48;;;17.80;99.90;;;;;;5007682;28;20180;-86
2022/09/15 14:20:59;;;;;;;1.42;1.17;;;17.70;99.90;;;;;;5016397;28;20185;-86
2022/09/15 14:23:25;;;;;;;2.35;1.33;;;17.50;99.90;;;;;;4997276;28;20274;-86
2022/09/15 14:25:51;;;;;;;1.67;1.58;;;17.50;99.90;;;;;;5009921;28;20310;-86
2022/09/15 14:28:20;;;;;;;1.50;1.35;;;17.50;99.90;;;;;;5011357;28;20249;-86
2022/09/15 14:30:47;;;;;;;2.33;1.35;;;17.50;99.90;;;;;;4996561;28;20248;-86
2022/09/15 14:33:16;;;;;;;6.38;1.75;;;17.40;99.90;;;;;;5012830;28;20639;-87
2022/09/15 14:35:43;;;;;;;3.40;1.73;;;17.50;99.90;;;;;;4994417;28;20211;-80
2022/09/15 14:38:21;;;;;;;3.33;1.75;;;17.60;99.90;;;;;;4992046;28;20214;-87
2022/09/15 14:40:53;;;;;;;2.83;1.90;;;17.50;99.90;;;;;;4994158;28;20185;-86
2022/09/15 14:43:46;;;;;;;2.08;1.60;;;17.60;99.90;;;;;;4998358;28;20190;-86
2022/09/15 14:46:18;;;;;;;5.95;2.20;;;17.90;99.90;;;;;;4985623;28;20226;-86
2022/09/15 14:48:44;;;;;;;2.17;1.90;;;18.00;99.90;;;;;;4998077;28;20191;-86
2022/09/15 14:51:24;;;;;;;2.88;2.20;;;18.20;99.90;;;;;;4989359;28;20671;-86
2022/09/15 14:53:59;;;;;;;2.50;1.92;;;18.30;99.90;;;;;;4993792;28;20171;-86
2022/09/15 14:56:31;;;;;;;2.88;2.20;;;18.30;99.90;;;;;;5007931;28;20201;-87
2022/09/15 14:59:03;;;;;;;4.18;2.15;;;18.40;99.90;;;;;;4999039;28;20193;-86
2022/09/15 15:02:00;;;;;;;2.92;1.90;;;18.40;99.90;;;;;;4998587;28;20186;-86
2022/09/15 15:04:35;;;;;;;2.25;2.05;;;18.60;99.90;;;;;;4990657;28;20226;-86
2022/09/15 15:07:13;;;;;;;3.53;2.10;;;18.50;99.90;;;;;;5032435;28;20167;-86
2022/09/15 15:09:50;;;;;;;2.67;2.08;;;18.50;99.90;;;;;;4985850;28;20203;-86
2022/09/15 15:12:38;;;;;;;2.30;2.10;;;18.40;99.90;;;;;;5010212;28;20179;-86
2022/09/15 15:15:05;;;;;;;2.55;1.85;;;18.40;99.90;;;;;;5007974;28;20229;-86
2022/09/15 15:17:53;;;;;;;4.00;2.10;;;18.30;99.90;;;;;;5014426;28;20246;-86
2022/09/15 15:20:29;;;;;;;2.72;2.00;;;18.30;99.90;;;;;;5006693;28;20176;-86
2022/09/15 15:23:26;;;;;;;2.33;2.10;;;18.30;99.90;;;;;;5004986;28;20178;-86
2022/09/15 15:26:13;;;;;;;2.17;1.92;;;18.20;99.90;;;;;;4980382;28;20290;-86
2022/09/15 15:28:46;;;;;;;3.60;2.25;;;18.20;99.90;;;;;;4984255;28;20197;-87
2022/09/15 15:31:23;;;;;;;2.25;1.98;;;18.20;99.90;;;;;;5010878;28;20206;-87
2022/09/15 15:33:58;;;;;;;2.08;1.80;;;18.20;99.90;;;;;;5005350;28;20166;-87
2022/09/15 15:36:26;;;;;;;2.00;1.83;;;18.20;99.90;;;;;;4992484;28;20178;-88
2022/09/15 15:38:54;;;;;;;3.72;2.10;;;18.30;99.90;;;;;;5009599;28;20183;-87
2022/09/15 15:41:24;;;;;;;2.80;1.67;;;18.30;99.90;;;;;;4995453;28;20206;-87
2022/09/15 15:44:13;;;;;;;1.85;1.73;;;18.50;99.90;;;;;;4989977;28;20214;-87
2022/09/15 15:46:52;;;;;;;2.25;1.75;;;18.70;99.90;;;;;;4982592;28;20190;-87
2022/09/15 15:49:22;;;;;;;2.55;1.70;;;18.90;99.90;;;;;;4995303;28;20194;-87
2022/09/15 15:51:49;;;;;;;3.10;2.70;;;19.20;99.90;;;;;;4990878;28;20199;-87
2022/09/15 15:54:15;;;;;;;1.60;1.50;;;19.30;99.90;;;;;;4989983;28;20219;-87
2022/09/15 15:56:41;;;;;;;2.05;1.73;;;19.40;99.90;;;;;;5002435;28;20179;-87
2022/09/15 15:59:11;;;;;;;2.00;1.73;;;19.60;99.90;;;;;;5005370;28;20175;-87
2022/09/15 16:01:37;;;;;;;2.08;1.60;;;19.70;99.90;;;;;;5010628;28;20180;-87
2022/09/15 16:04:03;;;;;;;2.80;1.80;;;19.70;99.90;;;;;;4982251;28;20174;-87
2022/09/15 16:06:29;;;;;;;2.10;2.00;;;19.70;99.90;;;;;;4981943;28;20187;-87
2022/09/15 16:08:59;;;;;;;3.47;2.03;;;19.50;99.90;;;;;;4996150;28;20221;-87
2022/09/15 16:11:25;;;;;;;2.60;1.60;;;19.50;99.90;;;;;;5000219;28;20192;-88
2022/09/15 16:13:52;;;;;;;2.05;1.60;;;19.40;99.90;;;;;;5016455;28;20170;-87
2022/09/15 16:16:21;;;;;;;2.25;1.60;;;19.30;99.90;;;;;;4980238;28;20190;-87
2022/09/15 16:18:47;;;;;;;1.85;1.73;;;19.20;99.90;;;;;;5021196;28;20199;-87
2022/09/15 16:21:23;;;;;;;2.00;1.70;;;19.10;99.90;;;;;;5009386;28;20190;-87
2022/09/15 16:23:49;;;;;;;1.92;1.80;;;19.00;99.90;;;;;;5011857;28;20257;-87
2022/09/15 16:26:20;;;;;;;2.80;2.10;;;18.80;99.90;;;;;;5000518;28;20273;-88
2022/09/15 16:28:46;;;;;;;2.53;1.92;;;18.80;99.90;;;;;;5003885;28;20178;-88
2022/09/15 16:31:13;;;;;;;2.05;1.90;;;18.70;99.90;;;;;;5036226;28;20253;-87
2022/09/15 16:33:41;;;;;;;2.30;1.90;;;18.60;99.90;;;;;;5020873;28;20273;-87
2022/09/15 16:36:13;;;;;;;2.55;2.05;;;18.60;99.90;;;;;;5020984;28;20209;-87
2022/09/15 16:38:40;;;;;;;2.22;1.90;;;18.50;99.90;;;;;;5016098;28;20262;-87
2022/09/15 16:41:13;;;;;;;1.80;1.70;;;18.50;99.90;;;;;;5013407;28;20182;-87
2022/09/15 16:43:39;;;;;;;2.83;1.70;;;18.40;99.90;;;;;;5000654;28;20186;-88
2022/09/15 16:46:05;;;;;;;1.95;1.75;;;18.40;99.90;;;;;;5000324;28;20229;-88
2022/09/15 16:48:33;;;;;;;2.10;1.90;;;18.30;99.90;;;;;;4982570;28;20171;-87
2022/09/15 16:50:58;;;;;;;3.50;2.10;;;18.30;99.90;;;;;;4981789;28;20302;-88
2022/09/15 16:53:25;;;;;;;2.90;2.00;;;18.30;99.90;;;;;;5000649;28;20266;-88
2022/09/15 16:55:54;;;;;;;2.47;2.05;;;18.20;99.90;;;;;;5000118;28;20199;-88
2022/09/15 16:58:21;;;;;;;3.10;2.20;;;18.20;99.90;;;;;;4996542;28;20191;-87
2022/09/15 17:00:50;;;;;;;2.10;1.90;;;18.10;99.90;;;;;;5013471;28;20182;-88
2022/09/15 17:03:18;;;;;;;3.65;1.90;;;18.00;99.90;;;;;;5016274;28;20185;-88
2022/09/15 17:05:48;;;;;;;3.00;2.10;;;17.80;99.90;;;;;;4995614;28;20252;-88
2022/09/15 17:08:15;;;;;;;2.58;2.10;;;17.70;99.90;;;;;;4993128;28;20183;-88
2022/09/15 17:10:41;;;;;;;3.25;2.40;;;17.70;99.90;;;;;;4998398;28;20268;-87
2022/09/15 17:13:07;;;;;;;2.42;2.17;;;17.60;99.90;;;;;;5001320;28;20240;-87
2022/09/15 17:15:52;;;;;;;3.05;2.25;;;17.50;99.90;;;;;;4996435;28;20199;-87
2022/09/15 17:18:20;;;;;;;2.35;1.92;;;17.40;99.90;;;;;;4996779;28;20167;-87
2022/09/15 17:20:47;;;;;;;2.25;2.05;;;17.40;99.90;;;;;;4980411;28;20184;-87
2022/09/15 17:23:23;;;;;;;4.15;2.40;;;17.30;99.90;;;;;;4984347;28;20244;-87
2022/09/15 17:25:54;;;;;;;3.28;2.40;;;17.10;99.90;;;;;;5000372;28;20198;-87
2022/09/15 17:28:37;;;;;;;2.85;2.20;;;17.10;99.90;;;;;;4999639;28;20169;-87
2022/09/15 17:34:19;;;;;;;3.15;2.20;;;16.90;99.90;;;;;;5017066;28;20305;-87
2022/09/15 17:36:48;;;;;;;3.30;3.00;;;16.80;99.90;;;;;;5001112;28;20213;-89
2022/09/15 17:39:14;;;;;;;2.88;2.65;;;16.70;99.90;;;;;;5005702;28;20655;-88
2022/09/15 17:41:43;;;;;;;4.47;2.50;;;16.60;99.90;;;;;;5015661;28;20189;-88
2022/09/15 17:44:12;;;;;;;5.97;2.63;;;16.50;99.90;;;;;;5002987;28;20226;-88
2022/09/15 17:46:39;;;;;;;2.70;2.40;;;16.50;99.90;;;;;;5008239;28;20196;-89
2022/09/15 17:49:05;;;;;;;2.90;2.60;;;16.50;99.90;;;;;;4999845;28;20178;-88
2022/09/15 17:51:31;;;;;;;3.67;3.07;;;16.40;99.90;;;;;;5019978;28;20210;-87
2022/09/15 17:53:57;;;;;;;2.67;2.43;;;16.30;99.90;;;;;;4998312;28;20257;-88
2022/09/15 17:56:23;;;;;;;4.60;2.83;;;16.30;99.90;;;;;;5015805;28;20185;-89
2022/09/15 17:58:49;;;;;;;2.93;2.60;;;16.20;99.90;;;;;;4999315;28;20178;-88
2022/09/15 18:01:15;;;;;;;3.33;2.50;;;16.10;99.90;;;;;;4999077;28;20194;-89
2022/09/15 18:03:43;;;;;;;2.77;2.50;;;16.10;99.90;;;;;;5016831;28;20171;-89
2022/09/15 18:06:10;;;;;;;2.67;2.40;;;16.00;99.90;;;;;;5004684;28;20250;-88
2022/09/15 18:08:36;;;;;;;4.03;2.63;;;16.00;99.90;;;;;;4979934;28;20272;-87
2022/09/15 18:11:06;;;;;;;3.50;2.40;;;15.90;99.90;;;;;;4979552;28;20206;-87
2022/09/15 18:13:32;;;;;;;2.67;2.47;;;15.80;99.90;;;;;;4982586;28;20267;-87
2022/09/15 18:16:04;;;;;;;3.97;2.80;;;15.80;99.90;;;;;;5001144;28;20203;-87
2022/09/15 18:18:30;;;;;;;4.17;3.00;;;15.80;99.90;;;;;;5002725;28;20324;-87
2022/09/15 18:20:57;;;;;;;2.93;2.73;;;15.70;99.90;;;;;;5002869;28;20278;-87
2022/09/15 18:23:24;;;;;;;4.07;2.80;;;15.70;99.90;;;;;;5005400;28;20261;-87
2022/09/15 18:25:51;;;;;;;3.77;3.27;;;15.50;99.90;;;;;;5003629;28;20194;-87
2022/09/15 18:28:29;;;;;;;3.67;2.80;;;15.50;99.90;;;;;;4998135;28;20736;-87
2022/09/15 18:30:55;;;;;;;4.43;2.90;;;15.50;99.90;;;;;;4999793;28;20206;-87
2022/09/15 18:33:24;;;;;;;3.50;2.77;;;15.50;99.90;;;;;;5002534;28;20194;-87
2022/09/15 18:35:53;;;;;;;3.30;2.77;;;15.50;99.90;;;;;;5018302;28;20235;-87
2022/09/15 18:38:21;;;;;;;4.30;2.90;;;15.50;99.90;;;;;;5014030;28;20179;-86
2022/09/15 18:40:54;;;;;;;3.60;2.93;;;15.50;99.90;;;;;;5009456;28;20179;-86
2022/09/15 18:43:24;;;;;;;3.50;3.20;;;15.50;99.90;;;;;;5031459;28;20186;-87
2022/09/15 18:45:51;;;;;;;3.97;3.40;;;15.50;99.90;;;;;;4999178;28;20213;-87
2022/09/15 18:48:18;;;;;;;3.40;3.10;;;15.50;99.90;;;;;;4997223;28;20282;-87
2022/09/15 18:50:44;;;;;;;4.20;3.30;;;15.50;99.90;;;;;;4997973;28;20202;-87
2022/09/15 18:53:11;;;;;;;4.03;3.20;;;15.50;99.90;;;;;;5018258;28;20190;-88
2022/09/15 18:55:40;;;;;;;5.00;2.90;;;15.50;99.90;;;;;;5018692;28;20194;-87
2022/09/15 18:58:06;;;;;;;4.07;3.33;;;15.50;99.90;;;;;;5001162;28;20183;-87
2022/09/15 19:00:32;;;;;;;4.63;3.30;;;15.50;99.90;;;;;;5017370;28;20218;-87
2022/09/15 19:03:08;;;;;;;3.73;2.90;;;15.50;99.90;;;;;;4997385;28;20259;-87
2022/09/15 19:05:35;;;;;;;6.00;3.27;;;15.60;99.90;;;;;;5018895;28;20205;-87
2022/09/15 19:08:01;;;;;;;3.13;2.83;;;15.70;99.90;;;;;;5020841;28;20186;-87
2022/09/15 19:10:28;;;;;;;5.50;3.10;;;15.70;99.90;;;;;;5002171;28;20206;-87
2022/09/15 19:12:53;;;;;;;3.93;3.07;;;15.70;99.90;;;;;;4998212;28;20183;-87
2022/09/15 19:15:20;;;;;;;4.67;2.70;;;15.80;99.90;;;;;;5004841;28;20198;-87
2022/09/15 19:17:49;;;;;;;3.67;2.90;;;15.70;99.90;;;;;;5016119;28;20183;-87
2022/09/15 19:20:16;;;;;;;2.80;2.60;;;15.70;99.90;;;;;;4982862;28;20267;-87
2022/09/15 19:22:42;;;;;;;3.97;3.07;;;15.70;99.90;;;;;;4986548;28;20179;-87
2022/09/15 19:25:18;;;;;;;4.07;3.10;;;15.70;99.90;;;;;;5008882;28;20263;-87
2022/09/15 19:27:44;;;;;;;4.93;3.17;;;15.60;99.90;;;;;;5011253;28;20198;-87
2022/09/15 19:30:11;;;;;;;3.50;2.50;;;15.60;99.90;;;;;;5006474;28;20264;-87
2022/09/15 19:32:38;;;;;;;4.07;2.80;;;15.50;99.90;;;;;;5001099;28;20260;-87
2022/09/15 19:35:08;;;;;;;3.47;2.97;;;15.40;99.90;;;;;;5012140;28;20200;-86
2022/09/15 19:37:38;;;;;;;3.43;2.60;;;15.40;99.90;;;;;;5003572;28;20171;-87
2022/09/15 19:40:09;;;;;;;2.60;2.40;;;15.40;99.90;;;;;;4982538;28;20186;-87
2022/09/15 19:42:37;;;;;;;3.20;2.90;;;15.40;99.90;;;;;;4981656;28;20202;-87
2022/09/15 19:45:03;;;;;;;4.23;3.40;;;15.30;99.90;;;;;;4997808;28;20211;-87
2022/09/15 19:47:29;;;;;;;3.67;2.63;;;15.20;99.90;;;;;;4982598;28;20193;-87
2022/09/15 19:49:55;;;;;;;3.00;2.70;;;15.20;99.90;;;;;;4992643;28;20206;-86
2022/09/15 19:52:21;;;;;;;3.43;2.80;;;15.10;99.90;;;;;;4998895;28;20274;-87
2022/09/15 19:54:47;;;;;;;3.07;2.70;;;15.10;99.90;;;;;;5029081;28;20285;-87
2022/09/15 19:57:14;;;;;;;4.20;2.90;;;15.00;99.90;;;;;;4999749;28;20269;-87
2022/09/15 19:59:40;;;;;;;4.93;2.80;;;15.00;99.90;;;;;;5001183;28;20244;-87
2022/09/15 20:02:06;;;;;;;3.23;2.70;;;14.90;99.90;;;;;;5011148;28;20174;-87
2022/09/15 20:04:31;;;;;;;3.90;2.80;;;14.90;99.90;;;;;;5003753;28;20198;-87
2022/09/15 20:06:59;;;;;;;2.77;2.57;;;14.90;99.90;;;;;;5007291;28;20209;-87
2022/09/15 20:09:25;;;;;;;3.03;2.73;;;14.90;99.90;;;;;;5008046;28;20234;-86
2022/09/15 20:11:52;;;;;;;5.43;3.40;;;14.80;99.90;;;;;;5027472;28;20177;-87
2022/09/15 20:14:18;;;;;;;3.23;2.93;;;14.80;99.90;;;;;;4998678;28;20237;-87
2022/09/15 20:16:44;;;;;;;3.43;3.13;;;14.80;99.90;;;;;;4981084;28;20176;-86
2022/09/15 20:19:10;;;;;;;5.47;3.00;;;14.70;99.90;;;;;;5016553;28;20229;-87
2022/09/15 20:21:37;;;;;;;3.30;2.93;;;14.70;99.90;;;;;;5000994;28;20188;-87
2022/09/15 20:24:03;;;;;;;5.50;3.60;;;14.60;99.90;;;;;;5000958;28;20198;-87
2022/09/15 20:26:30;;;;;;;6.00;3.63;;;14.60;99.90;;;;;;4997788;28;20218;-86
2022/09/15 20:29:00;;;;;;;6.90;4.50;;;14.60;99.90;;;;;;5013854;28;20188;-86
2022/09/15 20:31:31;;;;;;;6.90;5.00;;;14.50;99.90;;;;;;5005107;28;20213;-87
2022/09/15 20:34:01;;;;;;;5.33;4.27;;;14.40;99.90;;;;;;5022723;28;20191;-87
2022/09/15 20:36:33;;;;;;;5.83;4.37;;;14.40;99.90;;;;;;5004244;28;20172;-87
2022/09/15 20:38:59;;;;;;;4.17;3.70;;;14.40;99.90;;;;;;5022571;28;20178;-87
2022/09/15 20:41:27;;;;;;;4.67;3.60;;;14.30;99.90;;;;;;5005765;28;20176;-87
2022/09/15 20:43:53;;;;;;;4.97;4.10;;;14.30;99.90;;;;;;5021271;28;20248;-87
2022/09/15 20:46:21;;;;;;;4.93;3.87;;;14.30;99.90;;;;;;5008421;28;20277;-87
2022/09/15 20:48:47;;;;;;;5.97;3.93;;;14.20;99.90;;;;;;5006860;28;20178;-87
2022/09/15 20:51:21;;;;;;;4.07;3.67;;;14.20;99.90;;;;;;5005354;28;20218;-87
2022/09/15 20:53:50;;;;;;;4.77;3.53;;;14.10;99.90;;;;;;4993873;28;20201;-86
2022/09/15 20:56:20;;;;;;;6.70;4.27;;;14.00;99.90;;;;;;5024136;28;20179;-87
2022/09/15 20:58:46;;;;;;;7.00;3.63;;;14.00;99.90;;;;;;5003712;28;20174;-87
2022/09/15 21:01:14;;;;;;;5.90;4.20;;;14.00;99.90;;;;;;5007966;28;20209;-87
2022/09/15 21:03:41;;;;;;;4.00;3.40;;;13.90;99.90;;;;;;5011826;28;20193;-87
2022/09/15 21:06:10;;;;;;;5.27;3.80;;;13.90;99.90;;;;;;5005832;28;20190;-86
2022/09/15 21:08:36;;;;;;;4.40;3.90;;;13.90;99.90;;;;;;5001812;28;20184;-87
2022/09/15 21:11:04;;;;;;;3.90;3.50;;;14.00;99.90;;;;;;5011614;28;20221;-87
2022/09/15 21:13:34;;;;;;;4.37;3.97;;;14.00;99.90;;;;;;5001682;28;20234;-86
2022/09/15 21:16:01;;;;;;;4.87;3.77;;;13.90;99.90;;;;;;4991099;28;20198;-87
2022/09/15 21:18:33;;;;;;;4.83;4.13;;;13.70;99.90;;;;;;4999309;28;20249;-86
2022/09/15 21:21:09;;;;;;;6.57;3.90;;;13.70;99.90;;;;;;4996836;28;20191;-86
2022/09/15 21:23:41;;;;;;;4.47;4.00;;;13.70;99.90;;;;;;4995267;28;20310;-86
2022/09/15 21:26:18;;;;;;;4.87;3.47;;;13.60;99.90;;;;;;5004817;28;20210;-86
2022/09/15 21:28:44;;;;;;;5.30;4.00;;;13.70;99.90;;;;;;4983155;28;20183;-86
2022/09/15 21:31:13;;;;;;;4.17;3.60;;;13.70;99.90;;;;;;4981216;28;20214;-86
2022/09/15 21:33:50;;;;;;;3.77;3.40;;;13.70;99.90;;;;;;4990196;28;20181;-87
2022/09/15 21:36:20;;;;;;;4.00;3.40;;;13.70;99.90;;;;;;4983582;28;20205;-86
2022/09/15 21:38:46;;;;;;;4.40;3.73;;;13.70;99.90;;;;;;4991176;28;20206;-86
2022/09/15 21:41:15;;;;;;;3.60;3.30;;;13.60;99.90;;;;;;5007053;28;20187;-87
2022/09/15 21:43:44;;;;;;;3.43;3.13;;;13.60;99.90;;;;;;4999219;28;20194;-87
2022/09/15 21:46:13;;;;;;;5.20;4.03;;;13.50;99.90;;;;;;4998938;28;20233;-87
2022/09/15 21:48:39;;;;;;;7.13;3.67;;;13.50;99.90;;;;;;4995974;28;20187;-86
2022/09/15 21:51:06;;;;;;;5.50;3.40;;;13.40;99.90;;;;;;4996336;28;20274;-87
2022/09/15 21:53:33;;;;;;;3.37;3.07;;;13.40;99.90;;;;;;4995965;28;20176;-87
2022/09/15 21:56:05;;;;;;;4.07;3.67;;;13.30;99.90;;;;;;4979808;28;20203;-86
2022/09/15 21:58:34;;;;;;;5.13;4.10;;;13.20;99.90;;;;;;4979747;28;20182;-86
2022/09/15 22:01:20;;;;;;;5.50;4.47;;;13.20;99.90;;;;;;5001115;28;20239;-86
2022/09/15 22:03:50;;;;;;;5.23;4.50;;;13.10;99.90;;;;;;5010006;28;20187;-87
2022/09/15 22:06:18;;;;;;;6.53;4.80;;;12.90;99.90;;;;;;4989270;28;20182;-85
2022/09/15 22:08:43;;;;;;;5.23;4.20;;;12.80;99.90;;;;;;4995792;28;20675;-86
2022/09/15 22:11:10;;;;;;;4.87;4.37;;;12.80;99.90;;;;;;4989751;28;20206;-87
2022/09/15 22:13:41;;;;;;;5.87;4.57;;;12.70;99.90;;;;;;4995663;28;20205;-86
2022/09/15 22:16:12;;;;;;;9.93;4.80;;;12.70;99.90;;;;;;4988677;28;20193;-87
2022/09/15 22:18:39;;;;;;;8.33;5.23;;;12.70;99.90;;;;;;4979707;28;20278;-86
2022/09/15 22:21:10;;;;;;;5.37;4.53;;;12.70;99.90;;;;;;5005631;28;20188;-86
2022/09/15 22:23:42;;;;;;;5.27;4.70;;;12.70;99.90;;;;;;5008573;28;20260;-86
2022/09/15 22:26:19;;;;;;;6.90;4.90;;;12.70;99.90;;;;;;5009518;28;20281;-86
2022/09/15 22:28:46;;;;;;;7.37;4.70;;;12.70;99.90;;;;;;5014163;28;20185;-86
2022/09/15 22:31:13;;;;;;;5.37;4.87;;;12.80;99.90;;;;;;4995275;28;20247;-87
2022/09/15 22:33:40;;;;;;;4.60;4.20;;;12.80;99.90;;;;;;4982287;28;20185;-86
2022/09/15 22:36:17;;;;;;;4.80;4.30;;;12.80;99.90;;;;;;5002152;28;20205;-86
2022/09/15 22:38:44;;;;;;;6.93;5.13;;;12.80;99.90;;;;;;4990543;28;20203;-87
2022/09/15 22:41:13;;;;;;;10.03;5.57;;;12.70;99.90;;;;;;4997622;28;20193;-86
2022/09/15 22:43:42;;;;;;;6.07;4.83;;;12.70;99.90;;;;;;5019349;28;20209;-87
2022/09/15 22:46:09;;;;;;;5.53;5.03;;;12.80;99.90;;;;;;4996421;28;20203;-87
2022/09/15 22:48:35;;;;;;;5.70;5.10;;;12.70;99.90;;;;;;5025650;28;20193;-86
2022/09/15 22:51:01;;;;;;;6.40;5.00;;;12.80;99.90;;;;;;5002644;28;20208;-87
2022/09/15 22:53:27;;;;;;;6.10;5.50;;;12.80;99.90;;;;;;5010505;28;20195;-87
2022/09/15 22:56:23;;;;;;;5.53;5.03;;;12.90;99.90;;;;;;4987303;28;20674;-86
2022/09/15 22:58:49;;;;;;;7.43;5.33;;;13.00;99.90;;;;;;4993725;28;20186;-86
2022/09/15 23:01:18;;;;;;;6.13;4.90;;;13.00;99.90;;;;;;5013123;28;20183;-87